Time;durP1;ratioP1;P1;durP2;ratioP2;P2;SDS_P1;SDS_P2;PMS_P1;PMS_P2;Temp;Humidity;BMP_temperature;BMP_pressure;BME280_temperature;BME280_humidity;BME280_pressure;Samples;Min_cycle;Max_cycle;Signal;HPM_P1;HPM_P2
2021/11/12 00:03:00;;;;;;;36.07;22.80;;;;;;;2.58;100.00;98743.75;5070846;28;20222;-62
2021/11/12 00:13:48;;;;;;;31.83;21.80;;;;;;;2.53;100.00;98729.97;5070824;28;20300;-62
2021/11/12 00:16:16;;;;;;;31.57;21.83;;;;;;;2.52;100.00;98723.91;5074656;28;20222;-62
2021/11/12 00:18:42;;;;;;;35.03;23.07;;;;;;;2.40;100.00;98726.00;5074320;28;20294;-62
2021/11/12 00:21:09;;;;;;;35.83;23.47;;;;;;;2.34;100.00;98727.00;5071698;28;20574;-62
2021/11/12 00:23:38;;;;;;;39.10;24.77;;;;;;;2.40;100.00;98716.41;5074130;28;20211;-62
2021/11/12 00:26:05;;;;;;;36.77;23.50;;;;;;;2.33;100.00;98725.31;5064799;28;20215;-62
2021/11/12 00:28:35;;;;;;;36.13;24.07;;;;;;;2.33;100.00;98725.31;5074228;28;20222;-62
2021/11/12 00:31:07;;;;;;;37.70;24.17;;;;;;;2.37;100.00;98716.50;5071538;28;20736;-62
2021/11/12 00:33:46;;;;;;;34.50;23.63;;;;;;;2.38;100.00;98715.63;5074274;28;20236;-62
2021/11/12 00:36:27;;;;;;;36.70;23.70;;;;;;;2.40;100.00;98721.63;5073989;28;20671;-62
2021/11/12 00:38:57;;;;;;;34.43;23.17;;;;;;;2.47;100.00;98725.81;5071481;28;20237;-62
2021/11/12 00:41:33;;;;;;;34.90;23.53;;;;;;;2.53;100.00;98728.25;5073634;28;20222;-62
2021/11/12 00:44:08;;;;;;;35.50;23.60;;;;;;;2.54;100.00;98727.34;5073991;28;20207;-62
2021/11/12 00:46:37;;;;;;;35.57;22.50;;;;;;;2.59;100.00;98728.06;5073347;28;20241;-62
2021/11/12 00:49:08;;;;;;;35.27;23.60;;;;;;;2.61;100.00;98730.63;5073691;28;20220;-62
2021/11/12 00:51:39;;;;;;;33.40;22.37;;;;;;;2.64;100.00;98747.03;5072607;28;20235;-62
2021/11/12 00:54:07;;;;;;;35.20;23.37;;;;;;;2.62;100.00;98725.38;5073328;28;20727;-62
2021/11/12 00:56:35;;;;;;;33.27;22.70;;;;;;;2.62;100.00;98727.97;5071265;28;20215;-62
2021/11/12 00:59:08;;;;;;;29.50;20.60;;;;;;;2.56;100.00;98725.53;5073711;28;20226;-62
2021/11/12 01:01:36;;;;;;;36.03;22.60;;;;;;;2.50;100.00;98727.47;5073362;28;20582;-62
2021/11/12 01:04:06;;;;;;;33.30;22.23;;;;;;;2.49;100.00;98724.00;5073304;28;20216;-62
2021/11/12 01:06:33;;;;;;;34.40;23.10;;;;;;;2.53;100.00;98714.34;5073600;28;20289;-62
2021/11/12 01:09:00;;;;;;;36.13;21.97;;;;;;;2.55;100.00;98718.63;5073328;28;20568;-62
2021/11/12 01:11:27;;;;;;;32.97;22.33;;;;;;;2.54;100.00;98714.31;5073470;28;20235;-62
2021/11/12 01:13:54;;;;;;;32.67;22.93;;;;;;;2.59;100.00;98711.56;5073508;28;20598;-62
2021/11/12 01:16:21;;;;;;;38.63;23.57;;;;;;;2.58;100.00;98710.69;5073095;28;20237;-62
2021/11/12 01:18:48;;;;;;;39.33;23.20;;;;;;;2.57;100.00;98714.19;5071558;28;20676;-62
2021/11/12 01:21:16;;;;;;;36.47;24.10;;;;;;;2.55;100.00;98710.78;5073486;28;20589;-62
2021/11/12 01:23:45;;;;;;;39.60;24.43;;;;;;;2.58;100.00;98705.47;5073057;28;20207;-62
2021/11/12 01:26:12;;;;;;;38.20;24.13;;;;;;;2.63;100.00;98702.75;5073033;28;20227;-63
2021/11/12 01:28:41;;;;;;;42.67;26.20;;;;;;;2.64;100.00;98701.84;5073273;28;20215;-62
2021/11/12 01:31:08;;;;;;;40.17;24.77;;;;;;;2.64;100.00;98707.91;5072873;28;20269;-62
2021/11/12 01:33:35;;;;;;;40.90;25.00;;;;;;;2.67;100.00;98704.34;5073154;28;20232;-62
2021/11/12 01:36:09;;;;;;;37.27;23.80;;;;;;;2.70;100.00;98694.69;5072773;28;20265;-62
2021/11/12 01:38:36;;;;;;;35.20;22.63;;;;;;;2.72;100.00;98692.91;5073057;28;20218;-62
2021/11/12 01:41:03;;;;;;;35.10;23.53;;;;;;;2.77;100.00;98685.78;5073093;28;20215;-62
2021/11/12 01:43:37;;;;;;;36.50;23.00;;;;;;;2.71;100.00;98679.88;5072186;28;20210;-62
2021/11/12 01:46:20;;;;;;;38.73;24.73;;;;;;;2.65;100.00;98673.09;5067716;28;20267;-62
2021/11/12 01:51:41;;;;;;;36.20;23.77;;;;;;;2.65;100.00;98680.06;5068826;28;20250;-62
2021/11/12 01:54:25;;;;;;;35.40;23.13;;;;;;;2.61;100.00;98673.22;5073024;28;20214;-62
2021/11/12 01:57:22;;;;;;;42.30;25.83;;;;;;;2.65;100.00;98673.09;5073052;28;20249;-62
2021/11/12 01:59:49;;;;;;;37.90;24.07;;;;;;;2.61;100.00;98681.91;5067350;28;20306;-62
2021/11/12 02:02:16;;;;;;;38.93;25.17;;;;;;;2.55;100.00;98679.47;5067580;28;20207;-61
2021/11/12 02:04:44;;;;;;;38.67;24.43;;;;;;;2.49;100.00;98673.56;5068273;28;20216;-61
2021/11/12 02:07:11;;;;;;;38.33;24.23;;;;;;;2.42;100.00;98672.03;5064915;28;20239;-61
2021/11/12 02:09:38;;;;;;;38.47;24.53;;;;;;;2.43;100.00;98674.59;5065867;28;20211;-62
2021/11/12 02:12:16;;;;;;;36.90;25.10;;;;;;;2.41;100.00;98667.72;5065136;28;20711;-62
2021/11/12 02:14:43;;;;;;;38.87;23.60;;;;;;;2.45;100.00;98672.81;5072797;28;20243;-62
2021/11/12 02:17:14;;;;;;;39.03;24.63;;;;;;;2.51;100.00;98669.19;5072606;28;20251;-62
2021/11/12 02:19:48;;;;;;;39.57;24.23;;;;;;;2.56;100.00;98668.13;5072626;28;20222;-62
2021/11/12 02:22:17;;;;;;;36.03;23.67;;;;;;;2.61;100.00;98663.66;5072319;28;20222;-61
2021/11/12 02:24:49;;;;;;;38.77;23.30;;;;;;;2.60;100.00;98663.69;5072363;28;20558;-62
2021/11/12 02:27:17;;;;;;;45.00;26.40;;;;;;;2.59;100.00;98659.38;5072531;28;20215;-62
2021/11/12 02:29:46;;;;;;;39.77;25.47;;;;;;;2.61;100.00;98657.56;5072556;28;20242;-62
2021/11/12 02:32:18;;;;;;;41.63;24.67;;;;;;;2.62;100.00;98647.09;5072085;28;20247;-62
2021/11/12 02:34:47;;;;;;;36.90;24.13;;;;;;;2.65;100.00;98649.63;5072472;28;20223;-62
2021/11/12 02:37:14;;;;;;;36.20;23.77;;;;;;;2.67;100.00;98653.03;5070662;28;20217;-62
2021/11/12 02:39:43;;;;;;;36.33;23.40;;;;;;;2.66;100.00;98646.09;5072453;28;20219;-63
2021/11/12 02:42:10;;;;;;;38.97;24.43;;;;;;;2.62;100.00;98641.00;5072169;28;20298;-62
2021/11/12 02:44:37;;;;;;;41.67;25.03;;;;;;;2.64;100.00;98647.03;5072049;28;20227;-62
2021/11/12 02:47:04;;;;;;;40.37;24.37;;;;;;;2.67;100.00;98650.41;5072080;28;20216;-62
2021/11/12 02:49:31;;;;;;;40.13;24.57;;;;;;;2.68;100.00;98644.28;5072373;28;20590;-62
2021/11/12 02:51:58;;;;;;;37.80;24.43;;;;;;;2.65;100.00;98644.41;5072357;28;20236;-62
2021/11/12 02:54:25;;;;;;;36.00;23.80;;;;;;;2.68;100.00;98639.06;5072259;28;20217;-62
2021/11/12 02:56:57;;;;;;;37.43;23.27;;;;;;;2.71;100.00;98639.00;5067460;28;20223;-62
2021/11/12 02:59:23;;;;;;;40.73;24.47;;;;;;;2.69;100.00;98629.50;5071952;28;20303;-62
2021/11/12 03:01:50;;;;;;;40.00;24.73;;;;;;;2.72;100.00;98632.00;5070603;28;21086;-62
2021/11/12 03:04:19;;;;;;;35.63;23.53;;;;;;;2.74;100.00;98628.44;5072032;28;20216;-62
2021/11/12 03:06:46;;;;;;;36.77;23.00;;;;;;;2.74;100.00;98625.84;5072405;28;20661;-62
2021/11/12 03:09:14;;;;;;;39.67;24.20;;;;;;;2.72;100.00;98630.25;5072229;28;20223;-62
2021/11/12 03:11:42;;;;;;;36.13;23.17;;;;;;;2.79;100.00;98631.78;5075495;28;20249;-62
2021/11/12 03:14:11;;;;;;;34.97;23.00;;;;;;;2.74;100.00;98633.66;5075388;28;20688;-62
2021/11/12 03:16:39;;;;;;;36.03;23.47;;;;;;;2.64;100.00;98627.00;5075655;28;20220;-62
2021/11/12 03:19:08;;;;;;;38.03;23.83;;;;;;;2.59;100.00;98622.84;5075582;28;20247;-62
2021/11/12 03:21:35;;;;;;;38.40;24.60;;;;;;;2.58;100.00;98627.19;5075568;28;20568;-62
2021/11/12 03:24:05;;;;;;;34.80;21.93;;;;;;;2.58;100.00;98632.41;5075378;28;20220;-62
2021/11/12 03:26:38;;;;;;;40.00;25.20;;;;;;;2.60;100.00;98622.81;5075332;28;20620;-62
2021/11/12 03:29:29;;;;;;;38.70;24.83;;;;;;;2.56;100.00;98623.78;5073806;28;20223;-62
2021/11/12 03:59:46;;;;;;;34.67;22.97;;;;;;;2.50;100.00;98607.47;5067412;28;20245;-62
2021/11/12 04:02:11;;;;;;;37.03;24.37;;;;;;;2.45;100.00;98612.81;5074484;28;20222;-63
2021/11/12 04:04:47;;;;;;;37.30;23.13;;;;;;;2.46;100.00;98617.13;5074917;28;20665;-62
2021/11/12 04:07:28;;;;;;;35.97;23.60;;;;;;;2.44;100.00;98618.09;5074756;28;20219;-62
2021/11/12 04:18:22;;;;;;;35.33;23.17;;;;;;;2.53;100.00;98613.47;5066133;28;20690;-62
2021/11/12 04:40:33;;;;;;;34.60;22.70;;;;;;;2.49;100.00;98614.44;5025675;28;20227;-62
2021/11/12 05:43:38;;;;;;;28.50;19.27;;;;;;;2.08;100.00;98614.75;5072895;28;20268;-62
2021/11/12 05:51:40;;;;;;;29.03;19.43;;;;;;;2.09;100.00;98600.00;5070235;28;20605;-62
2021/11/12 05:56:54;;;;;;;31.03;20.33;;;;;;;2.13;100.00;98591.16;5072844;28;20692;-62
2021/11/12 05:59:23;;;;;;;27.83;19.17;;;;;;;2.10;100.00;98602.56;5072869;28;20302;-62
2021/11/12 06:01:50;;;;;;;31.40;19.90;;;;;;;2.06;100.00;98595.72;5072903;28;20219;-62
2021/11/12 06:04:17;;;;;;;27.13;19.83;;;;;;;2.03;100.00;98590.56;5071108;28;20215;-62
2021/11/12 06:06:44;;;;;;;27.07;19.67;;;;;;;2.02;100.00;98599.28;5072769;28;20222;-62
2021/11/12 06:09:10;;;;;;;28.00;20.07;;;;;;;2.01;100.00;98581.94;5072760;28;20206;-62
2021/11/12 06:11:37;;;;;;;26.47;18.80;;;;;;;1.97;100.00;98590.75;5072738;28;20235;-62
2021/11/12 06:14:04;;;;;;;24.43;18.93;;;;;;;1.92;100.00;98592.66;5072483;28;20222;-62
2021/11/12 06:16:32;;;;;;;28.30;19.97;;;;;;;1.88;100.00;98601.44;5072367;28;20223;-62
2021/11/12 06:18:59;;;;;;;27.00;19.03;;;;;;;1.86;100.00;98598.03;5072684;28;20211;-62
2021/11/12 06:21:27;;;;;;;25.87;17.77;;;;;;;1.89;100.00;98597.94;5072344;28;20223;-62
2021/11/12 06:23:54;;;;;;;27.07;19.00;;;;;;;1.83;100.00;98592.88;5072548;28;20584;-62
2021/11/12 06:26:20;;;;;;;26.03;17.80;;;;;;;1.81;100.00;98594.69;5072516;28;20211;-62
2021/11/12 06:28:47;;;;;;;29.97;20.10;;;;;;;1.81;100.00;98594.69;5072630;28;20234;-62
2021/11/12 06:31:14;;;;;;;27.67;19.43;;;;;;;1.72;100.00;98591.47;5065846;28;20243;-62
2021/11/12 06:33:42;;;;;;;27.97;19.43;;;;;;;1.69;100.00;98599.34;5072036;28;20239;-62
2021/11/12 06:36:08;;;;;;;31.23;20.50;;;;;;;1.67;100.00;98601.16;5072458;28;20215;-62
2021/11/12 06:38:36;;;;;;;31.37;20.87;;;;;;;1.61;100.00;98601.31;5072103;28;20227;-62
2021/11/12 06:41:08;;;;;;;31.90;20.93;;;;;;;1.64;100.00;98602.09;5072488;28;20211;-62
2021/11/12 06:43:40;;;;;;;29.17;20.20;;;;;;;1.68;100.00;98601.13;5072666;28;20219;-62
2021/11/12 06:51:36;;;;;;;33.30;21.37;;;;;;;1.84;100.00;98599.81;5068463;28;20296;-62
2021/11/12 06:54:03;;;;;;;32.63;21.20;;;;;;;1.92;100.00;98597.88;5075852;28;20586;-62
2021/11/12 06:56:29;;;;;;;32.10;20.27;;;;;;;1.95;100.00;98596.88;5074374;28;20589;-62
2021/11/12 06:58:56;;;;;;;34.57;21.87;;;;;;;1.95;100.00;98592.53;5076024;28;20216;-62
2021/11/12 07:01:24;;;;;;;38.97;22.90;;;;;;;2.00;100.00;98601.09;5075933;28;20567;-62
2021/11/12 07:03:52;;;;;;;32.97;21.47;;;;;;;1.99;100.00;98602.00;5075835;28;20220;-62
2021/11/12 07:06:19;;;;;;;41.43;23.03;;;;;;;2.00;100.00;98598.50;5073320;28;20216;-62
2021/11/12 07:08:46;;;;;;;35.07;21.87;;;;;;;2.07;100.00;98589.59;5075569;28;20291;-62
2021/11/12 07:11:12;;;;;;;34.80;21.57;;;;;;;2.13;100.00;98597.25;5075715;28;20599;-62
2021/11/12 07:13:39;;;;;;;32.80;21.23;;;;;;;2.22;100.00;98598.75;5075701;28;20652;-62
2021/11/12 07:16:06;;;;;;;31.83;21.07;;;;;;;2.26;100.00;98593.38;5075585;28;20208;-62
2021/11/12 07:18:32;;;;;;;32.63;21.40;;;;;;;2.33;100.00;98589.69;5075589;28;20211;-62
2021/11/12 07:21:00;;;;;;;34.20;22.20;;;;;;;2.36;100.00;98579.19;5075265;28;20207;-62
2021/11/12 07:23:28;;;;;;;32.37;21.43;;;;;;;2.40;100.00;98588.59;5073583;28;20222;-62
2021/11/12 07:25:56;;;;;;;33.17;21.93;;;;;;;2.45;100.00;98578.91;5075538;28;20272;-62
2021/11/12 07:28:25;;;;;;;27.40;19.83;;;;;;;2.49;100.00;98585.75;5075300;28;20215;-62
2021/11/12 07:30:53;;;;;;;31.63;21.47;;;;;;;2.55;100.00;98584.69;5075322;28;20211;-62
2021/11/12 07:33:20;;;;;;;29.57;20.67;;;;;;;2.50;100.00;98586.59;5075269;28;20239;-62
2021/11/12 07:35:49;;;;;;;31.90;21.67;;;;;;;2.51;100.00;98585.69;5072344;28;20306;-62
2021/11/12 07:38:20;;;;;;;33.77;22.30;;;;;;;2.49;100.00;98590.09;5075027;28;20227;-62
2021/11/12 07:46:33;;;;;;;28.97;20.13;;;;;;;2.77;100.00;98591.84;5056498;28;20310;-62
2021/11/12 07:49:00;;;;;;;29.80;20.83;;;;;;;2.81;100.00;98582.97;5073449;28;20215;-62
2021/11/12 07:51:27;;;;;;;30.93;20.87;;;;;;;2.82;100.00;98589.91;5074645;28;20211;-62
2021/11/12 07:53:55;;;;;;;28.57;20.97;;;;;;;2.88;100.00;98592.31;5074663;28;20239;-62
2021/11/12 07:56:22;;;;;;;33.20;21.80;;;;;;;2.90;100.00;98581.84;5073911;28;20228;-62
2021/11/12 07:58:49;;;;;;;29.87;20.80;;;;;;;2.92;100.00;98575.69;5074774;28;20218;-61
2021/11/12 08:01:15;;;;;;;27.37;19.77;;;;;;;2.90;100.00;98568.78;5074691;28;20204;-62
2021/11/12 08:03:43;;;;;;;28.40;20.57;;;;;;;2.79;100.00;98569.13;5074827;28;20222;-62
2021/11/12 08:06:12;;;;;;;28.73;20.23;;;;;;;2.75;100.00;98564.91;5074487;28;20738;-62
2021/11/12 08:08:40;;;;;;;32.40;22.40;;;;;;;2.75;100.00;98566.69;5074784;28;20300;-62
2021/11/12 08:11:13;;;;;;;31.00;20.30;;;;;;;2.76;100.00;98566.59;5074604;28;20226;-62
2021/11/12 08:13:44;;;;;;;27.53;19.73;;;;;;;2.86;100.00;98559.34;5073259;28;20267;-62
2021/11/12 08:16:25;;;;;;;36.40;19.43;;;;;;;2.90;100.00;98554.00;5067128;28;20299;-62
2021/11/12 08:18:55;;;;;;;31.10;21.10;;;;;;;2.95;100.00;98553.84;5074278;28;20219;-62
2021/11/12 08:21:26;;;;;;;35.77;22.70;;;;;;;3.02;100.00;98545.75;5069505;28;20259;-62
2021/11/12 08:24:00;;;;;;;31.47;22.53;;;;;;;3.05;100.00;98545.66;5074486;28;20306;-62
2021/11/12 08:26:36;;;;;;;34.53;23.23;;;;;;;3.10;100.00;98548.97;5074389;28;20664;-62
2021/11/12 08:32:07;;;;;;;31.33;21.93;;;;;;;3.14;100.00;98544.50;5058247;28;20221;-62
2021/11/12 08:34:41;;;;;;;33.80;21.53;;;;;;;3.27;100.00;98553.63;5074107;28;20216;-62
2021/11/12 08:37:15;;;;;;;34.63;22.60;;;;;;;3.32;100.00;98559.56;5069443;28;20250;-62
2021/11/12 08:39:51;;;;;;;35.27;24.47;;;;;;;3.40;100.00;98558.41;5064672;28;20594;-62
2021/11/12 08:42:22;;;;;;;32.60;22.00;;;;;;;3.43;100.00;98560.88;5074146;28;20215;-62
2021/11/12 08:44:52;;;;;;;34.53;22.90;;;;;;;3.47;100.00;98559.88;5073657;28;20707;-62
2021/11/12 08:47:21;;;;;;;30.00;21.30;;;;;;;3.50;100.00;98554.56;5070082;28;20260;-62
2021/11/12 08:49:47;;;;;;;35.93;23.83;;;;;;;3.50;100.00;98557.19;5072483;28;20226;-62
2021/11/12 08:52:17;;;;;;;41.00;23.13;;;;;;;3.40;100.00;98547.94;5072508;28;20243;-62
2021/11/12 08:54:46;;;;;;;35.17;23.87;;;;;;;3.39;100.00;98546.25;5067089;28;20556;-62
2021/11/12 08:57:15;;;;;;;32.50;22.17;;;;;;;3.33;100.00;98545.59;5061749;28;20299;-62
2021/11/12 08:59:45;;;;;;;32.20;22.83;;;;;;;3.24;100.00;98535.47;5061492;28;20214;-61
2021/11/12 09:02:15;;;;;;;32.77;22.53;;;;;;;3.24;100.00;98540.69;5073281;28;20673;-61
2021/11/12 09:04:42;;;;;;;29.90;21.20;;;;;;;3.31;100.00;98544.78;5073573;28;20216;-62
2021/11/12 09:07:09;;;;;;;31.47;21.20;;;;;;;3.33;100.00;98546.44;5071744;28;20215;-62
2021/11/12 09:09:36;;;;;;;31.17;21.37;;;;;;;3.31;100.00;98548.25;5073293;28;20569;-62
2021/11/12 09:12:04;;;;;;;31.63;21.57;;;;;;;3.35;100.00;98549.84;5073484;28;20223;-62
2021/11/12 09:14:31;;;;;;;28.87;20.87;;;;;;;3.46;100.00;98544.25;5073488;28;20273;-62
2021/11/12 09:17:04;;;;;;;27.53;19.77;;;;;;;3.55;100.00;98547.41;5073358;28;20222;-61
2021/11/12 09:19:31;;;;;;;31.37;22.30;;;;;;;3.46;100.00;98541.63;5073064;28;20630;-62
2021/11/12 09:21:57;;;;;;;32.83;21.77;;;;;;;3.37;100.00;98550.63;5073465;28;20216;-62
2021/11/12 09:24:24;;;;;;;29.60;20.53;;;;;;;3.42;100.00;98540.88;5073059;28;20212;-62
2021/11/12 09:26:51;;;;;;;33.33;22.73;;;;;;;3.53;100.00;98548.34;5073303;28;20294;-62
2021/11/12 09:29:17;;;;;;;29.70;21.63;;;;;;;3.68;100.00;98542.59;5073319;28;20586;-62
2021/11/12 09:31:45;;;;;;;29.67;21.03;;;;;;;3.77;100.00;98543.13;5071968;28;20215;-62
2021/11/12 09:34:14;;;;;;;27.20;19.80;;;;;;;3.80;100.00;98537.78;5072678;28;20636;-62
2021/11/12 09:36:42;;;;;;;29.67;21.20;;;;;;;3.85;100.00;98543.69;5072910;28;20309;-62
2021/11/12 09:39:09;;;;;;;30.97;21.40;;;;;;;3.95;100.00;98537.25;5073033;28;20215;-63
2021/11/12 09:41:35;;;;;;;30.30;21.70;;;;;;;3.96;100.00;98554.63;5073115;28;20216;-62
2021/11/12 09:44:04;;;;;;;28.13;19.63;;;;;;;4.00;100.00;98540.53;5073018;28;20219;-61
2021/11/12 09:46:31;;;;;;;30.67;21.80;;;;;;;4.09;100.00;98542.81;5072760;28;20215;-63
2021/11/12 09:48:59;;;;;;;32.33;21.20;;;;;;;4.09;100.00;98540.19;5072831;28;20677;-62
2021/11/12 09:51:28;;;;;;;31.13;20.50;;;;;;;4.02;100.00;98538.72;5073057;28;20618;-62
2021/11/12 09:53:55;;;;;;;29.83;21.37;;;;;;;4.04;100.00;98536.06;5073168;28;20243;-61
2021/11/12 09:56:22;;;;;;;28.27;20.13;;;;;;;4.06;100.00;98545.56;5072722;28;20220;-61
2021/11/12 09:58:49;;;;;;;28.40;21.23;;;;;;;4.04;100.00;98533.44;5071272;28;20230;-61
2021/11/12 10:01:25;;;;;;;28.97;20.37;;;;;;;4.07;100.00;98526.31;5072858;28;20230;-61
2021/11/12 10:03:51;;;;;;;25.67;18.93;;;;;;;4.04;100.00;98521.19;5072777;28;20220;-62
2021/11/12 10:06:20;;;;;;;27.20;18.67;;;;;;;4.01;100.00;98510.88;5072739;28;20226;-61
2021/11/12 10:08:48;;;;;;;24.50;18.50;;;;;;;4.12;100.00;98503.47;5072716;28;20284;-61
2021/11/12 10:11:22;;;;;;;25.43;18.90;;;;;;;4.22;100.00;98499.56;5072310;28;20222;-62
2021/11/12 10:13:52;;;;;;;25.97;19.43;;;;;;;4.25;100.00;98509.94;5072322;28;20709;-61
2021/11/12 10:16:35;;;;;;;26.40;19.40;;;;;;;4.16;100.00;98507.66;5072254;28;20677;-62
2021/11/12 10:19:06;;;;;;;26.83;19.33;;;;;;;4.04;100.00;98515.13;5073636;28;20221;-62
2021/11/12 10:21:35;;;;;;;25.00;18.33;;;;;;;3.94;100.00;98508.53;5076558;28;20218;-62
2021/11/12 10:24:06;;;;;;;26.97;19.47;;;;;;;4.03;100.00;98503.81;5075080;28;20215;-61
2021/11/12 10:26:35;;;;;;;29.40;20.23;;;;;;;4.16;100.00;98494.56;5065890;28;20222;-62
2021/11/12 10:29:05;;;;;;;26.80;19.23;;;;;;;4.27;100.00;98471.47;5076741;28;20211;-61
2021/11/12 10:31:43;;;;;;;26.27;18.03;;;;;;;4.28;100.00;98477.59;5076054;28;20242;-63
2021/11/12 10:34:16;;;;;;;26.03;18.83;;;;;;;4.31;100.00;98470.47;5074814;28;20238;-62
2021/11/12 10:36:47;;;;;;;24.50;18.50;;;;;;;4.38;100.00;98474.53;5076326;28;20223;-61
2021/11/12 10:39:15;;;;;;;25.60;18.13;;;;;;;4.33;100.00;98466.00;5076058;28;20215;-62
2021/11/12 10:41:42;;;;;;;25.43;18.77;;;;;;;4.33;100.00;98470.41;5075994;28;20215;-61
2021/11/12 10:44:12;;;;;;;24.27;18.40;;;;;;;4.41;100.00;98463.94;5075967;28;20211;-61
2021/11/12 10:46:40;;;;;;;29.07;20.33;;;;;;;4.56;100.00;98463.34;5075956;28;20281;-62
2021/11/12 10:49:32;;;;;;;25.33;19.40;;;;;;;4.70;100.00;98460.19;5075826;28;20212;-61
2021/11/12 10:52:01;;;;;;;28.10;19.13;;;;;;;4.77;100.00;98462.47;5068667;28;20213;-61
2021/11/12 10:54:42;;;;;;;25.43;18.97;;;;;;;4.87;100.00;98460.31;5076091;28;20236;-62
2021/11/12 10:57:10;;;;;;;25.00;18.93;;;;;;;4.94;100.00;98453.94;5075905;28;20211;-62
2021/11/12 10:59:52;;;;;;;26.77;20.03;;;;;;;5.03;100.00;98451.78;5074224;28;20212;-62
2021/11/12 11:02:22;;;;;;;26.77;19.43;;;;;;;5.08;100.00;98444.53;5074507;28;20239;-62
2021/11/12 11:04:48;;;;;;;27.37;19.73;;;;;;;5.15;100.00;98435.53;5074383;28;20214;-62
2021/11/12 11:07:20;;;;;;;31.67;21.03;;;;;;;5.13;100.00;98434.72;5074282;28;20225;-62
2021/11/12 11:09:48;;;;;;;26.10;19.40;;;;;;;5.10;100.00;98434.88;5063255;28;20233;-62
2021/11/12 11:12:34;;;;;;;26.30;19.07;;;;;;;5.15;100.00;98430.31;5074742;28;20224;-62
2021/11/12 11:15:19;;;;;;;26.30;18.70;;;;;;;5.16;100.00;98437.22;5074489;28;20247;-62
2021/11/12 11:17:48;;;;;;;27.33;18.63;;;;;;;5.15;100.00;98427.69;5063146;28;20212;-62
2021/11/12 11:20:18;;;;;;;28.23;19.90;;;;;;;5.25;100.00;98413.25;5074534;28;20220;-61
2021/11/12 11:22:55;;;;;;;28.20;20.83;;;;;;;5.25;100.00;98405.38;5074448;28;20225;-62
2021/11/12 11:25:25;;;;;;;29.43;21.47;;;;;;;5.24;100.00;98411.53;5074035;28;20219;-62
2021/11/12 11:27:53;;;;;;;28.77;21.70;;;;;;;5.20;100.00;98417.00;5074253;28;20247;-62
2021/11/12 11:30:19;;;;;;;31.80;22.90;;;;;;;5.19;100.00;98413.50;5072819;28;20690;-62
2021/11/12 11:32:46;;;;;;;32.40;23.87;;;;;;;5.20;100.00;98403.88;5074128;28;20610;-62
2021/11/12 11:35:13;;;;;;;30.70;22.07;;;;;;;5.23;100.00;98403.75;5074258;28;20278;-62
2021/11/12 11:37:41;;;;;;;32.20;21.77;;;;;;;5.31;100.00;98401.66;5074159;28;20209;-62
2021/11/12 11:40:10;;;;;;;35.17;23.50;;;;;;;5.38;100.00;98403.91;5074117;28;20216;-62
2021/11/12 11:42:39;;;;;;;35.43;23.33;;;;;;;5.42;100.00;98399.38;5070888;28;20224;-62
2021/11/12 11:45:07;;;;;;;36.70;24.33;;;;;;;5.32;100.00;98392.88;5073375;28;20681;-62
2021/11/12 11:47:34;;;;;;;35.47;24.10;;;;;;;5.19;100.00;98382.06;5074027;28;20212;-62
2021/11/12 11:50:01;;;;;;;32.13;22.43;;;;;;;5.16;100.00;98378.72;5073717;28;20702;-62
2021/11/12 11:52:29;;;;;;;37.50;24.20;;;;;;;5.02;100.00;98384.56;5073772;28;20218;-62
2021/11/12 11:54:56;;;;;;;39.27;25.40;;;;;;;4.99;100.00;98382.09;5073696;28;20249;-62
2021/11/12 11:57:27;;;;;;;39.37;24.77;;;;;;;5.04;100.00;98389.75;5073786;28;20208;-62
2021/11/12 12:00:25;;;;;;;38.83;26.57;;;;;;;4.94;100.00;98385.84;5073420;28;20294;-62
2021/11/12 12:03:22;;;;;;;39.20;25.77;;;;;;;4.84;100.00;98387.97;5070067;28;20578;-62
2021/11/12 12:06:05;;;;;;;38.07;24.87;;;;;;;4.83;100.00;98383.66;5070598;28;20220;-62
2021/11/12 12:08:31;;;;;;;38.43;25.20;;;;;;;4.90;100.00;98364.13;5070637;28;20216;-62
2021/11/12 12:11:16;;;;;;;41.03;25.23;;;;;;;4.98;100.00;98362.06;5071743;28;20250;-62
2021/11/12 12:13:43;;;;;;;35.53;24.07;;;;;;;5.06;100.00;98353.88;5070747;28;20597;-62
2021/11/12 12:16:10;;;;;;;40.37;25.53;;;;;;;5.13;100.00;98350.06;5073052;28;20215;-61
2021/11/12 12:18:47;;;;;;;38.50;24.97;;;;;;;5.18;100.00;98343.69;5062457;28;20223;-62
2021/11/12 12:36:50;;;;;;;39.07;25.57;;;;;;;5.22;100.00;98323.44;5069627;28;20224;-60
2021/11/12 13:22:36;;;;;;;39.03;26.50;;;;;;;5.17;100.00;98268.63;5067981;28;20224;-62
2021/11/12 13:25:04;;;;;;;39.77;26.47;;;;;;;5.24;100.00;98280.53;5071475;28;20591;-62
2021/11/12 13:27:31;;;;;;;37.97;25.97;;;;;;;5.29;100.00;98283.81;5070605;28;20216;-62
2021/11/12 13:29:57;;;;;;;38.80;25.90;;;;;;;5.21;100.00;98285.06;5069372;28;20221;-61
2021/11/12 13:32:24;;;;;;;39.47;26.77;;;;;;;5.15;100.00;98291.44;5071167;28;20248;-62
2021/11/12 13:34:50;;;;;;;45.63;29.10;;;;;;;5.12;100.00;98288.13;5070279;28;20241;-62
2021/11/12 13:37:19;;;;;;;47.10;29.73;;;;;;;5.12;100.00;98283.72;5071249;28;20220;-62
2021/11/12 13:40:02;;;;;;;43.33;28.17;;;;;;;5.05;100.00;98284.91;5071967;28;20220;-61
2021/11/12 13:42:29;;;;;;;41.57;27.37;;;;;;;4.97;100.00;98273.94;5071833;28;20214;-62
2021/11/12 13:44:56;;;;;;;47.00;29.57;;;;;;;4.97;100.00;98276.56;5071861;28;20217;-62
2021/11/12 13:47:23;;;;;;;45.90;30.57;;;;;;;4.93;100.00;98267.13;5071759;28;20216;-62
2021/11/12 13:49:52;;;;;;;50.13;30.07;;;;;;;4.92;100.00;98278.53;5071497;28;20248;-62
2021/11/12 13:52:22;;;;;;;48.23;30.33;;;;;;;4.87;100.00;98270.00;5071456;28;20591;-62
2021/11/12 13:54:52;;;;;;;48.83;31.33;;;;;;;4.86;100.00;98273.56;5069053;28;20661;-62
2021/11/12 13:57:21;;;;;;;51.77;31.53;;;;;;;4.80;100.00;98262.50;5069291;28;20582;-62
2021/11/12 13:59:52;;;;;;;53.60;32.90;;;;;;;4.75;100.00;98270.56;5071652;28;20212;-62
2021/11/12 14:02:19;;;;;;;49.80;32.10;;;;;;;4.79;100.00;98272.13;5071345;28;20207;-62
2021/11/12 14:04:46;;;;;;;48.90;31.80;;;;;;;4.85;100.00;98278.84;5071362;28;20677;-62
2021/11/12 14:07:17;;;;;;;50.77;32.10;;;;;;;4.81;100.00;98277.28;5063503;28;20220;-62
2021/11/12 14:09:44;;;;;;;51.53;31.30;;;;;;;4.83;100.00;98278.09;5063744;28;20231;-62
2021/11/12 14:12:13;;;;;;;55.60;32.90;;;;;;;4.93;100.00;98280.22;5060388;28;20215;-62
2021/11/12 14:14:42;;;;;;;51.87;33.17;;;;;;;4.95;100.00;98277.53;5061429;28;20234;-63
2021/11/12 14:17:17;;;;;;;51.00;32.93;;;;;;;4.85;100.00;98277.09;5063876;28;20257;-62
2021/11/12 14:19:58;;;;;;;48.47;31.23;;;;;;;4.75;100.00;98290.63;5062070;28;20703;-62
2021/11/12 14:25:20;;;;;;;44.77;28.10;;;;;;;4.61;100.00;98288.63;5065399;28;20320;-62
2021/11/12 14:28:02;;;;;;;49.73;28.80;;;;;;;4.34;100.00;98291.56;5067667;28;20222;-62
2021/11/12 14:30:55;;;;;;;43.47;27.67;;;;;;;4.34;100.00;98302.03;5061900;28;20216;-62
2021/11/12 14:33:27;;;;;;;53.47;30.70;;;;;;;4.13;100.00;98305.53;5068104;28;20238;-62
2021/11/12 14:36:04;;;;;;;43.17;27.83;;;;;;;4.21;100.00;98303.47;5059828;28;20609;-62
2021/11/12 14:38:34;;;;;;;46.60;29.53;;;;;;;4.13;100.00;98302.91;5063568;28;20587;-62
2021/11/12 14:46:30;;;;;;;60.63;29.63;;;;;;;3.90;100.00;98306.47;5065673;28;20211;-63
2021/11/12 14:49:11;;;;;;;46.90;26.83;;;;;;;3.93;100.00;98298.50;5061963;28;20290;-62
2021/11/12 14:51:44;;;;;;;43.43;27.30;;;;;;;3.82;100.00;98300.69;5059933;28;20216;-62
2021/11/12 14:54:12;;;;;;;58.50;29.57;;;;;;;3.73;100.00;98302.81;5062598;28;20243;-62
2021/11/12 14:56:46;;;;;;;44.50;26.83;;;;;;;3.77;100.00;98302.63;5063654;28;20276;-62
2021/11/12 14:59:16;;;;;;;43.47;27.70;;;;;;;3.81;100.00;98309.47;5060502;28;20252;-63
2021/11/12 15:01:43;;;;;;;43.93;29.03;;;;;;;3.83;100.00;98302.41;5066845;28;20207;-62
2021/11/12 15:04:10;;;;;;;42.47;27.07;;;;;;;3.89;100.00;98307.38;5070622;28;20220;-63
2021/11/12 15:06:36;;;;;;;48.40;27.97;;;;;;;3.81;100.00;98303.38;5067013;28;20253;-63
2021/11/12 15:09:07;;;;;;;45.37;26.97;;;;;;;3.81;100.00;98303.38;5064233;28;20216;-63